createdAt,value
2022-12-15T00:01:43.635Z,3.90
2022-12-15T00:04:29.088Z,3.90
2022-12-15T00:07:14.518Z,3.90
2022-12-15T00:10:00.059Z,3.90
2022-12-15T00:12:45.428Z,4.00
2022-12-15T00:15:30.883Z,4.00
2022-12-15T00:18:16.392Z,4.00
2022-12-15T00:21:01.531Z,4.00
2022-12-15T00:23:47.048Z,3.90
2022-12-15T00:26:32.353Z,3.80
2022-12-15T00:29:18.035Z,3.80
2022-12-15T00:32:03.588Z,3.70
2022-12-15T00:34:48.858Z,3.70
2022-12-15T00:37:34.447Z,3.70
2022-12-15T00:40:04.671Z,3.70
2022-12-15T00:42:31.672Z,3.60
2022-12-15T00:44:58.935Z,3.60
2022-12-15T00:47:26.004Z,3.60
2022-12-15T00:50:11.623Z,3.50
2022-12-15T00:52:57.083Z,3.50
2022-12-15T00:55:42.542Z,3.30
2022-12-15T00:58:29.211Z,3.30
2022-12-15T01:01:14.701Z,3.40
2022-12-15T01:04:00.370Z,3.40
2022-12-15T01:06:45.476Z,3.40
2022-12-15T01:09:32.141Z,3.30
2022-12-15T01:12:17.552Z,3.30
2022-12-15T01:15:03.144Z,3.40
2022-12-15T01:17:48.613Z,3.20
2022-12-15T01:20:18.265Z,3.20
2022-12-15T01:22:53.131Z,3.10
2022-12-15T01:25:23.551Z,3.10
2022-12-15T01:27:50.682Z,3.10
2022-12-15T01:30:25.676Z,3.10
2022-12-15T01:32:52.923Z,3.10
2022-12-15T01:35:21.250Z,3.00
2022-12-15T01:37:50.132Z,3.10
2022-12-15T01:40:37.374Z,3.10
2022-12-15T01:43:04.340Z,3.10
2022-12-15T01:45:30.954Z,3.10
2022-12-15T01:48:00.890Z,3.10
2022-12-15T01:50:29.743Z,3.00
2022-12-15T01:52:56.448Z,3.00
2022-12-15T01:55:27.476Z,3.00
2022-12-15T01:58:01.026Z,3.10
2022-12-15T02:00:28.325Z,3.10
2022-12-15T02:02:56.742Z,3.10
2022-12-15T02:05:24.642Z,3.10
2022-12-15T02:07:51.411Z,3.10
2022-12-15T02:10:18.357Z,3.10
2022-12-15T02:12:50.704Z,3.10
2022-12-15T02:15:32.400Z,3.20
2022-12-15T02:18:10.598Z,3.20
2022-12-15T02:20:51.338Z,3.20
2022-12-15T02:23:25.828Z,3.20
2022-12-15T02:26:29.803Z,3.30
2022-12-15T02:29:28.678Z,3.10
2022-12-15T02:32:29.126Z,3.20
2022-12-15T02:35:02.962Z,3.30
2022-12-15T02:37:34.528Z,3.20
2022-12-15T02:40:01.913Z,3.20
2022-12-15T02:42:30.416Z,3.10
2022-12-15T02:45:02.943Z,3.10
2022-12-15T02:48:05.928Z,3.10
2022-12-15T02:50:38.432Z,3.30
2022-12-15T02:53:29.630Z,3.40
2022-12-15T02:56:23.439Z,3.50
2022-12-15T02:59:06.369Z,3.50
2022-12-15T03:01:40.677Z,3.30
2022-12-15T03:04:10.850Z,3.30
2022-12-15T03:06:37.845Z,3.30
2022-12-15T03:09:04.700Z,3.50
2022-12-15T03:11:31.634Z,3.50
2022-12-15T03:13:58.384Z,3.60
2022-12-15T03:16:25.128Z,3.80
2022-12-15T03:18:52.770Z,4.00
2022-12-15T03:21:19.626Z,4.00
2022-12-15T03:23:46.351Z,4.00
2022-12-15T03:26:13.347Z,4.10
2022-12-15T03:28:40.100Z,4.10
2022-12-15T03:31:07.248Z,4.10
2022-12-15T03:33:35.159Z,4.20
2022-12-15T03:36:02.052Z,4.30
2022-12-15T03:38:28.837Z,4.30
2022-12-15T03:40:55.560Z,4.30
2022-12-15T03:43:22.522Z,4.40
2022-12-15T03:45:49.541Z,4.40
2022-12-15T03:48:16.502Z,4.40
2022-12-15T03:50:44.445Z,4.50
2022-12-15T03:53:11.133Z,4.50
2022-12-15T03:55:37.900Z,4.50
2022-12-15T03:58:04.665Z,4.50
2022-12-15T04:00:31.375Z,4.50
2022-12-15T04:02:58.331Z,4.60
2022-12-15T04:05:28.545Z,4.60
2022-12-15T04:07:56.956Z,4.70
2022-12-15T04:10:31.741Z,4.70
2022-12-15T04:13:09.129Z,4.70
2022-12-15T04:15:38.589Z,4.70
2022-12-15T04:18:09.159Z,4.60
2022-12-15T04:20:36.120Z,4.60
2022-12-15T04:23:02.898Z,4.60
2022-12-15T04:25:48.226Z,4.70
2022-12-15T04:28:33.978Z,4.70
2022-12-15T04:31:29.521Z,4.60
2022-12-15T04:34:18.531Z,4.50
2022-12-15T04:37:07.467Z,4.60
2022-12-15T04:39:54.801Z,4.60
2022-12-15T04:42:40.271Z,4.60
2022-12-15T04:45:26.388Z,4.60
2022-12-15T04:48:11.844Z,4.60
2022-12-15T04:50:57.599Z,4.50
2022-12-15T04:53:42.765Z,4.50
2022-12-15T04:56:30.504Z,4.50
2022-12-15T04:59:16.023Z,4.60
2022-12-15T05:02:01.729Z,4.60
2022-12-15T05:04:47.136Z,4.60
2022-12-15T05:07:32.610Z,4.60
2022-12-15T05:10:18.034Z,4.60
2022-12-15T05:13:03.545Z,4.70
2022-12-15T05:15:50.500Z,4.70
2022-12-15T05:18:35.947Z,4.60
2022-12-15T05:21:21.289Z,4.60
2022-12-15T05:24:06.715Z,4.60
2022-12-15T05:26:53.284Z,4.70
2022-12-15T05:29:39.422Z,4.80
2022-12-15T05:32:06.769Z,4.70
2022-12-15T05:34:35.144Z,4.70
2022-12-15T05:37:03.584Z,4.80
2022-12-15T05:39:30.464Z,4.70
2022-12-15T05:41:57.547Z,4.80
2022-12-15T05:44:25.654Z,4.80
2022-12-15T05:46:52.697Z,4.90
2022-12-15T05:49:19.461Z,4.90
2022-12-15T05:51:47.959Z,4.90
2022-12-15T05:54:18.194Z,4.90
2022-12-15T05:56:45.758Z,5.00
2022-12-15T05:59:13.059Z,5.00
2022-12-15T06:01:40.196Z,5.10
2022-12-15T06:04:07.583Z,5.10
2022-12-15T06:06:34.424Z,5.10
2022-12-15T06:09:01.155Z,5.10
2022-12-15T06:11:27.932Z,5.10
2022-12-15T06:13:56.215Z,5.20
2022-12-15T06:16:24.619Z,5.10
2022-12-15T06:18:54.695Z,5.10
2022-12-15T06:21:24.378Z,4.80
2022-12-15T06:23:52.188Z,4.60
2022-12-15T06:26:31.178Z,4.60
2022-12-15T06:29:02.572Z,4.60
2022-12-15T06:31:30.835Z,4.80
2022-12-15T06:34:02.043Z,4.90
2022-12-15T06:36:30.743Z,5.00
2022-12-15T06:39:02.242Z,5.00
2022-12-15T06:41:30.382Z,4.80
2022-12-15T06:43:57.759Z,4.40
2022-12-15T06:46:26.081Z,4.30
2022-12-15T06:48:53.138Z,4.30
2022-12-15T06:51:20.437Z,4.10
2022-12-15T06:53:54.385Z,4.10
2022-12-15T06:56:34.651Z,4.20
2022-12-15T06:59:06.487Z,4.20
2022-12-15T07:01:33.980Z,4.00
2022-12-15T07:04:04.736Z,4.20
2022-12-15T07:06:37.031Z,4.40
2022-12-15T07:09:07.123Z,4.60
2022-12-15T07:11:33.866Z,4.70
2022-12-15T07:14:00.906Z,4.80
2022-12-15T07:16:27.810Z,4.90
2022-12-15T07:18:54.749Z,4.90
2022-12-15T07:21:21.781Z,5.00
2022-12-15T07:23:57.284Z,5.00
2022-12-15T07:26:25.058Z,5.10
2022-12-15T07:28:53.228Z,5.10
2022-12-15T07:31:20.122Z,5.10
2022-12-15T07:33:48.444Z,5.20
2022-12-15T07:36:15.515Z,5.20
2022-12-15T07:38:42.459Z,5.30
2022-12-15T07:41:10.619Z,5.30
2022-12-15T07:43:38.388Z,5.30
2022-12-15T07:46:06.396Z,5.30
2022-12-15T07:48:33.897Z,5.20
2022-12-15T07:51:11.060Z,5.30
2022-12-15T07:53:42.728Z,5.30
2022-12-15T07:56:10.392Z,5.30
2022-12-15T07:58:38.244Z,5.30
2022-12-15T08:01:10.823Z,5.20
2022-12-15T08:03:38.826Z,5.20
2022-12-15T08:06:11.259Z,5.30
2022-12-15T08:08:38.307Z,5.20
2022-12-15T08:11:09.894Z,5.20
2022-12-15T08:16:25.142Z,5.10
2022-12-15T08:18:51.966Z,5.30
2022-12-15T08:21:19.038Z,5.30
2022-12-15T08:23:45.911Z,5.30
2022-12-15T08:26:16.132Z,5.40
2022-12-15T08:28:43.897Z,5.40
2022-12-15T08:31:17.331Z,5.40
2022-12-15T08:33:45.279Z,5.40
2022-12-15T08:36:14.834Z,5.50
2022-12-15T08:38:43.127Z,5.50
2022-12-15T08:41:14.557Z,5.60
2022-12-15T08:43:47.944Z,5.60
2022-12-15T08:46:17.748Z,5.60
2022-12-15T08:48:44.744Z,5.60
2022-12-15T08:51:11.989Z,5.70
2022-12-15T08:53:39.045Z,5.70
2022-12-15T08:56:12.511Z,5.70
2022-12-15T08:58:39.817Z,5.80
2022-12-15T09:01:09.715Z,5.80
2022-12-15T09:03:37.475Z,5.80
2022-12-15T09:06:06.090Z,5.90
2022-12-15T09:08:33.642Z,5.80
2022-12-15T09:11:00.993Z,5.80
2022-12-15T09:13:28.836Z,5.80
2022-12-15T09:16:09.335Z,5.80
2022-12-15T09:18:37.283Z,5.80
2022-12-15T09:21:07.348Z,5.80
2022-12-15T09:23:35.990Z,5.90
2022-12-15T09:26:09.219Z,5.90
2022-12-15T09:28:37.203Z,5.90
2022-12-15T09:31:05.679Z,5.90
2022-12-15T09:33:33.278Z,6.00
2022-12-15T09:36:00.362Z,5.90
2022-12-15T09:38:27.308Z,6.00
2022-12-15T09:40:54.214Z,6.00
2022-12-15T09:43:35.781Z,5.90
2022-12-15T09:46:11.793Z,5.90
2022-12-15T09:48:44.471Z,5.90
2022-12-15T09:51:17.261Z,5.90
2022-12-15T09:53:54.640Z,6.00
2022-12-15T09:56:32.663Z,5.90
2022-12-15T09:59:37.032Z,5.80
2022-12-15T10:02:28.912Z,5.80
2022-12-15T10:05:57.748Z,5.80
2022-12-15T10:08:22.123Z,5.80
2022-12-15T10:10:51.802Z,5.80
2022-12-15T10:13:31.339Z,5.90
2022-12-15T10:16:07.540Z,5.90
2022-12-15T10:19:07.101Z,5.90
2022-12-15T10:21:34.148Z,5.90
2022-12-15T10:24:59.807Z,6.00
2022-12-15T10:27:40.932Z,6.00
2022-12-15T10:30:11.363Z,6.00
2022-12-15T10:32:50.990Z,5.90
2022-12-15T10:35:28.902Z,5.90
2022-12-15T10:38:00.681Z,5.90
2022-12-15T10:43:40.465Z,5.90
2022-12-15T10:46:28.457Z,5.80
2022-12-15T10:49:07.382Z,5.90
2022-12-15T10:51:48.127Z,6.00
2022-12-15T10:54:16.519Z,5.90
2022-12-15T10:56:52.701Z,5.90
2022-12-15T10:59:31.827Z,6.00
2022-12-15T11:02:23.898Z,6.00
2022-12-15T11:04:59.867Z,6.20
2022-12-15T11:07:48.499Z,5.90
2022-12-15T11:10:24.091Z,5.90
2022-12-15T11:13:10.521Z,5.90
2022-12-15T11:15:40.397Z,5.80
2022-12-15T11:18:38.344Z,5.80
2022-12-15T11:21:16.811Z,5.80
2022-12-15T11:23:52.830Z,5.80
2022-12-15T11:26:43.777Z,5.90
2022-12-15T11:29:35.210Z,5.90
2022-12-15T11:34:49.305Z,5.90
2022-12-15T11:37:44.933Z,5.90
2022-12-15T11:40:23.705Z,5.90
2022-12-15T11:42:53.473Z,5.90
2022-12-15T11:45:37.677Z,5.80
2022-12-15T11:48:15.026Z,5.80
2022-12-15T11:50:53.844Z,5.80
2022-12-15T11:53:23.743Z,5.70
2022-12-15T11:56:01.623Z,5.70
2022-12-15T11:59:09.706Z,5.70
2022-12-15T12:02:03.284Z,5.70
2022-12-15T12:04:52.242Z,5.60
2022-12-15T12:07:32.840Z,5.60
2022-12-15T12:10:33.142Z,5.60
2022-12-15T12:13:38.618Z,5.70
2022-12-15T12:16:15.882Z,5.80
2022-12-15T12:18:52.168Z,5.80
2022-12-15T12:21:34.129Z,5.80
2022-12-15T12:24:06.638Z,5.70
2022-12-15T12:26:45.143Z,5.80
2022-12-15T12:29:34.636Z,5.80
2022-12-15T12:32:14.186Z,5.80
2022-12-15T12:35:31.213Z,5.80
2022-12-15T12:38:04.023Z,5.80
2022-12-15T12:41:36.913Z,5.80
2022-12-15T12:44:30.929Z,5.80
2022-12-15T12:47:00.556Z,5.80
2022-12-15T12:49:56.394Z,5.80
2022-12-15T12:52:31.296Z,5.80
2022-12-15T12:55:01.862Z,5.70
2022-12-15T12:57:50.110Z,5.60
2022-12-15T13:00:19.650Z,5.60
2022-12-15T13:02:48.357Z,5.70
2022-12-15T13:05:35.594Z,5.70
2022-12-15T13:08:05.426Z,5.70
2022-12-15T13:10:36.948Z,5.60
2022-12-15T13:13:18.455Z,5.60
2022-12-15T13:15:50.849Z,5.60
2022-12-15T13:18:25.400Z,5.40
2022-12-15T13:20:57.107Z,5.50
2022-12-15T13:23:23.881Z,5.50
2022-12-15T13:25:56.621Z,5.40
2022-12-15T13:28:47.383Z,5.40
2022-12-15T13:31:24.121Z,5.40
2022-12-15T13:33:50.981Z,5.30
2022-12-15T13:36:36.518Z,5.30
2022-12-15T13:39:12.563Z,5.30
2022-12-15T13:42:00.627Z,5.30
2022-12-15T13:44:43.914Z,5.30
2022-12-15T13:47:25.239Z,5.30
2022-12-15T13:50:01.075Z,5.30
2022-12-15T13:53:17.457Z,5.20
2022-12-15T13:55:37.206Z,5.20
2022-12-15T13:58:06.761Z,5.20
2022-12-15T14:00:33.654Z,5.20
2022-12-15T14:03:12.841Z,5.10
2022-12-15T14:05:42.942Z,5.20
2022-12-15T14:08:14.976Z,5.20
2022-12-15T14:10:49.055Z,5.10
2022-12-15T14:13:24.936Z,5.30
2022-12-15T14:15:59.028Z,5.20
2022-12-15T14:18:34.238Z,5.20
2022-12-15T14:21:04.656Z,5.20
2022-12-15T14:23:41.540Z,5.30
2022-12-15T14:26:14.799Z,5.30
2022-12-15T14:28:44.054Z,5.30
2022-12-15T14:31:20.825Z,5.30
2022-12-15T14:33:50.798Z,5.30
2022-12-15T14:36:20.434Z,5.40
2022-12-15T14:38:53.502Z,5.40
2022-12-15T14:41:35.229Z,5.40
2022-12-15T14:44:31.506Z,5.30
2022-12-15T14:47:00.200Z,5.30
2022-12-15T14:49:36.259Z,5.30
2022-12-15T14:52:06.188Z,5.30
2022-12-15T14:54:39.089Z,5.30
2022-12-15T14:57:11.704Z,5.30
2022-12-15T14:59:42.166Z,5.30
2022-12-15T15:02:29.560Z,5.40
2022-12-15T15:03:04.066Z,5.90
2022-12-15T15:03:06.891Z,5.90
2022-12-15T15:05:03.778Z,5.40
2022-12-15T15:07:35.520Z,5.40
2022-12-15T15:10:05.288Z,5.40
2022-12-15T15:12:45.401Z,5.40
2022-12-15T15:15:19.524Z,5.30
2022-12-15T15:17:55.670Z,5.30
2022-12-15T15:20:26.828Z,5.40
2022-12-15T15:23:08.577Z,5.40
2022-12-15T15:25:59.453Z,5.40
2022-12-15T15:28:35.773Z,5.40
2022-12-15T15:31:22.710Z,5.40
2022-12-15T15:33:49.451Z,5.40
2022-12-15T15:36:16.204Z,5.40
2022-12-15T15:38:46.722Z,5.30
2022-12-15T15:41:21.989Z,5.30
2022-12-15T15:43:48.863Z,5.30
2022-12-15T15:46:22.988Z,5.30
2022-12-15T15:48:53.632Z,5.20
2022-12-15T15:51:21.070Z,5.20
2022-12-15T15:53:48.092Z,5.20
2022-12-15T15:56:17.061Z,5.20
2022-12-15T15:58:43.982Z,5.20
2022-12-15T16:01:13.320Z,5.10
2022-12-15T16:03:41.268Z,5.10
2022-12-15T16:06:16.763Z,5.10
2022-12-15T16:08:45.028Z,5.10
2022-12-15T16:11:12.294Z,5.10
2022-12-15T16:13:39.729Z,5.10
2022-12-15T16:16:07.006Z,5.20
2022-12-15T16:18:34.348Z,5.10
2022-12-15T16:21:01.558Z,5.20
2022-12-15T16:23:29.752Z,5.20
2022-12-15T16:25:58.509Z,5.30
2022-12-15T16:28:30.701Z,5.30
2022-12-15T16:30:58.759Z,5.30
2022-12-15T16:33:25.822Z,5.30
2022-12-15T16:35:53.498Z,5.20
2022-12-15T16:38:26.072Z,5.20
2022-12-15T16:40:55.310Z,5.20
2022-12-15T16:43:24.819Z,5.30
2022-12-15T16:45:53.939Z,5.20
2022-12-15T16:48:21.129Z,5.10
2022-12-15T16:50:55.244Z,5.00
2022-12-15T16:53:28.863Z,5.00
2022-12-15T16:55:57.510Z,4.90
2022-12-15T16:58:26.464Z,5.00
2022-12-15T17:00:56.183Z,5.10
2022-12-15T17:03:25.674Z,5.20
2022-12-15T17:05:58.086Z,5.30
2022-12-15T17:08:26.293Z,5.30
2022-12-15T17:10:53.673Z,5.20
2022-12-15T17:13:41.899Z,5.20
2022-12-15T17:16:14.550Z,5.20
2022-12-15T17:18:43.032Z,5.20
2022-12-15T17:21:17.363Z,5.30
2022-12-15T17:23:52.329Z,5.20
2022-12-15T17:26:29.043Z,5.20
2022-12-15T17:29:01.427Z,5.20
2022-12-15T17:31:34.867Z,5.20
2022-12-15T17:34:13.503Z,5.20
2022-12-15T17:36:40.202Z,5.30
2022-12-15T17:39:09.815Z,5.30
2022-12-15T17:41:58.781Z,5.30
2022-12-15T17:44:41.279Z,5.30
2022-12-15T17:47:09.189Z,5.30
2022-12-15T17:49:38.724Z,5.20
2022-12-15T17:52:26.179Z,5.20
2022-12-15T17:54:53.529Z,5.10
2022-12-15T17:57:20.406Z,5.20
2022-12-15T17:59:47.586Z,5.10
2022-12-15T18:02:14.885Z,5.00
2022-12-15T18:04:42.439Z,5.00
2022-12-15T18:07:29.412Z,4.80
2022-12-15T18:09:56.144Z,4.80
2022-12-15T18:12:26.231Z,4.80
2022-12-15T18:14:54.032Z,4.80
2022-12-15T18:17:20.819Z,4.80
2022-12-15T18:19:47.787Z,4.70
2022-12-15T18:22:22.042Z,4.60
2022-12-15T18:24:49.742Z,4.70
2022-12-15T18:27:26.553Z,4.80
2022-12-15T18:29:53.864Z,4.70
2022-12-15T18:32:25.316Z,4.80
2022-12-15T18:34:52.537Z,4.60
2022-12-15T18:37:22.867Z,4.60
2022-12-15T18:39:50.454Z,4.60
2022-12-15T18:42:20.257Z,4.70
2022-12-15T18:44:50.298Z,4.60
2022-12-15T18:47:19.838Z,4.50
2022-12-15T18:49:46.747Z,4.40
2022-12-15T18:52:25.007Z,4.40
2022-12-15T18:54:54.409Z,4.50
2022-12-15T18:57:31.506Z,4.50
2022-12-15T19:00:04.581Z,4.40
2022-12-15T19:02:31.408Z,4.50
2022-12-15T19:04:58.213Z,4.60
2022-12-15T19:07:25.087Z,4.60
2022-12-15T19:09:51.994Z,4.60
2022-12-15T19:12:18.973Z,4.60
2022-12-15T19:14:47.561Z,4.50
2022-12-15T19:17:43.201Z,4.50
2022-12-15T19:20:38.152Z,4.50
2022-12-15T19:23:06.844Z,4.40
2022-12-15T19:25:34.557Z,4.40
2022-12-15T19:28:01.736Z,4.50
2022-12-15T19:30:41.690Z,4.60
2022-12-15T19:33:10.031Z,4.70
2022-12-15T19:35:38.130Z,4.60
2022-12-15T19:38:05.562Z,4.60
2022-12-15T19:40:34.363Z,4.60
2022-12-15T19:43:02.176Z,4.80
2022-12-15T19:45:31.410Z,4.80
2022-12-15T19:47:59.149Z,4.70
2022-12-15T19:50:28.103Z,4.80
2022-12-15T19:53:00.616Z,4.80
2022-12-15T19:55:32.688Z,4.70
2022-12-15T19:58:00.903Z,4.80
2022-12-15T20:00:27.804Z,4.80
2022-12-15T20:02:55.220Z,4.80
2022-12-15T20:05:24.202Z,4.60
2022-12-15T20:07:53.300Z,4.60
2022-12-15T20:10:31.695Z,4.50
2022-12-15T20:13:00.275Z,4.40
2022-12-15T20:15:27.347Z,4.60
2022-12-15T20:17:56.719Z,4.50
2022-12-15T20:20:26.110Z,4.50
2022-12-15T20:22:56.423Z,4.50
2022-12-15T20:25:30.040Z,4.50
2022-12-15T20:28:00.215Z,4.60
2022-12-15T20:30:35.421Z,4.60
2022-12-15T20:33:04.373Z,4.50
2022-12-15T20:35:33.259Z,4.50
2022-12-15T20:38:04.274Z,4.40
2022-12-15T20:40:31.605Z,4.50
2022-12-15T20:42:58.334Z,4.40
2022-12-15T20:45:27.062Z,4.40
2022-12-15T20:47:55.841Z,4.30
2022-12-15T20:50:27.537Z,4.20
2022-12-15T20:52:54.911Z,4.20
2022-12-15T20:55:22.291Z,4.40
2022-12-15T20:57:49.273Z,4.40
2022-12-15T21:00:18.088Z,4.50
2022-12-15T21:02:46.085Z,4.60
2022-12-15T21:05:19.334Z,4.40
2022-12-15T21:07:46.967Z,4.40
2022-12-15T21:10:15.616Z,4.30
2022-12-15T21:12:44.734Z,4.20
2022-12-15T21:15:24.213Z,4.00
2022-12-15T21:18:19.737Z,4.00
2022-12-15T21:20:41.767Z,4.20
2022-12-15T21:23:39.709Z,4.40
2022-12-15T21:26:10.396Z,4.40
2022-12-15T21:28:37.443Z,4.40
2022-12-15T21:31:04.258Z,4.20
2022-12-15T21:33:31.063Z,4.30
2022-12-15T21:35:58.520Z,4.40
2022-12-15T21:38:39.810Z,4.60
2022-12-15T21:41:13.013Z,4.70
2022-12-15T21:43:39.678Z,4.60
2022-12-15T21:46:24.611Z,4.70
2022-12-15T21:49:13.644Z,4.80
2022-12-15T21:51:41.454Z,4.70
2022-12-15T21:54:15.469Z,4.60
2022-12-15T21:56:42.187Z,4.60
2022-12-15T21:59:13.587Z,4.70
2022-12-15T22:01:40.619Z,4.80
2022-12-15T22:04:21.612Z,4.80
2022-12-15T22:06:50.663Z,4.90
2022-12-15T22:09:18.522Z,4.90
2022-12-15T22:11:49.820Z,4.80
2022-12-15T22:14:33.612Z,4.70
2022-12-15T22:17:16.524Z,4.80
2022-12-15T22:19:43.497Z,4.80
2022-12-15T22:22:10.297Z,4.80
2022-12-15T22:24:37.054Z,4.70
2022-12-15T22:27:04.118Z,4.70
2022-12-15T22:29:31.648Z,4.60
2022-12-15T22:31:58.686Z,4.60
2022-12-15T22:34:27.047Z,4.60
2022-12-15T22:36:54.988Z,4.60
2022-12-15T22:39:22.044Z,4.60
2022-12-15T22:41:50.730Z,4.60
2022-12-15T22:44:37.200Z,4.70
2022-12-15T22:47:04.708Z,4.60
2022-12-15T22:49:37.683Z,4.50
2022-12-15T22:52:16.566Z,4.60
2022-12-15T22:54:46.037Z,4.70
2022-12-15T22:57:29.231Z,4.70
2022-12-15T23:00:03.025Z,4.80
2022-12-15T23:02:34.773Z,4.80
2022-12-15T23:05:02.346Z,4.80
2022-12-15T23:07:29.056Z,4.80
2022-12-15T23:10:21.850Z,4.90
2022-12-15T23:12:54.136Z,4.90
2022-12-15T23:15:44.515Z,4.80
2022-12-15T23:18:12.310Z,4.60
2022-12-15T23:20:39.090Z,4.40
2022-12-15T23:23:05.879Z,4.20
2022-12-15T23:25:32.940Z,4.30
2022-12-15T23:28:00.033Z,4.40
2022-12-15T23:30:27.102Z,4.50
2022-12-15T23:32:54.971Z,4.50
2022-12-15T23:35:22.314Z,4.60
2022-12-15T23:37:49.093Z,4.50
2022-12-15T23:40:21.275Z,4.40
2022-12-15T23:42:49.164Z,4.40
2022-12-15T23:45:16.368Z,4.40
2022-12-15T23:47:43.432Z,4.40
2022-12-15T23:50:10.623Z,4.20
2022-12-15T23:52:37.929Z,4.10
2022-12-15T23:55:05.002Z,4.00
2022-12-15T23:57:31.771Z,4.10
2022-12-15T23:59:58.634Z,4.20
